Time;durP1;ratioP1;P1;durP2;ratioP2;P2;SDS_P1;SDS_P2;PMS_P1;PMS_P2;Temp;Humidity;BMP_temperature;BMP_pressure;BME280_temperature;BME280_humidity;BME280_pressure;Samples;Min_cycle;Max_cycle;Signal;HPM_P1;HPM_P2
2024/01/26 00:01:33;;;;;;;41.90;22.25;;;;;;;-1.40;68.98;98851.94;6274885;22;20416;-66
2024/01/26 00:03:59;;;;;;;43.17;23.35;;;;;;;-1.38;69.04;98850.09;6273358;22;20439;-64
2024/01/26 00:06:25;;;;;;;43.97;22.35;;;;;;;-1.64;69.11;98804.94;6277263;22;20007;-65
2024/01/26 00:08:51;;;;;;;39.22;21.15;;;;;;;-1.60;68.50;98798.59;6275883;22;20008;-64
2024/01/26 00:11:19;;;;;;;39.67;22.27;;;;;;;-1.18;67.70;98864.06;6277342;22;20000;-64
2024/01/26 00:13:44;;;;;;;39.33;22.00;;;;;;;-1.27;67.92;98865.34;6276472;22;20347;-65
2024/01/26 00:16:09;;;;;;;42.30;23.35;;;;;;;-1.36;68.34;98858.75;6276825;22;20122;-64
2024/01/26 00:18:36;;;;;;;41.20;22.15;;;;;;;-1.46;68.14;98824.19;6276917;22;20442;-64
2024/01/26 00:21:03;;;;;;;40.45;21.88;;;;;;;-1.32;67.73;98864.72;6277409;22;19996;-65
2024/01/26 00:23:29;;;;;;;38.17;22.20;;;;;;;-1.40;67.86;98858.97;6276471;22;20326;-64
2024/01/26 00:25:55;;;;;;;40.80;22.23;;;;;;;-1.54;68.42;98863.09;6277064;22;20448;-64
2024/01/26 00:28:20;;;;;;;39.42;21.65;;;;;;;-1.54;69.12;98856.97;6275940;22;20020;-66
2024/01/26 00:30:46;;;;;;;43.78;22.13;;;;;;;-1.51;69.06;98872.59;6276809;22;20010;-63
2024/01/26 00:33:12;;;;;;;47.20;23.63;;;;;;;-1.33;67.99;98861.22;6276746;22;20000;-64
2024/01/26 00:35:37;;;;;;;37.85;20.50;;;;;;;-1.32;67.88;98881.31;6276851;22;20015;-65
2024/01/26 00:38:03;;;;;;;40.85;22.60;;;;;;;-1.34;67.71;98869.16;6275737;22;19999;-64
2024/01/26 00:40:28;;;;;;;40.08;22.60;;;;;;;-1.48;68.78;98875.06;6277042;22;20000;-64
2024/01/26 00:42:54;;;;;;;40.50;21.45;;;;;;;-1.47;68.54;98876.78;6275154;22;20095;-65
2024/01/26 00:45:19;;;;;;;37.80;20.25;;;;;;;-1.38;68.00;98886.88;6276157;22;20018;-65
2024/01/26 00:47:45;;;;;;;42.55;21.95;;;;;;;-1.40;67.44;98890.47;6276600;22;20008;-65
2024/01/26 00:50:11;;;;;;;43.42;21.98;;;;;;;-1.56;68.47;98870.19;6276730;22;20011;-64
2024/01/26 00:52:36;;;;;;;42.47;22.17;;;;;;;-1.56;68.33;98877.22;6276880;22;20065;-64
2024/01/26 00:55:02;;;;;;;38.78;22.00;;;;;;;-1.58;68.19;98900.88;6276723;22;20072;-64
2024/01/26 00:57:29;;;;;;;42.65;22.00;;;;;;;-1.51;68.37;98885.72;6276846;22;20094;-64
2024/01/26 00:59:55;;;;;;;41.03;20.80;;;;;;;-1.44;68.03;98889.78;6274647;22;20011;-64
2024/01/26 01:02:21;;;;;;;40.85;22.10;;;;;;;-1.44;68.08;98881.91;6276534;22;20409;-63
2024/01/26 01:04:46;;;;;;;39.08;21.15;;;;;;;-1.54;68.15;98881.47;6275213;22;20000;-65
2024/01/26 01:07:12;;;;;;;39.33;21.95;;;;;;;-1.52;68.19;98895.38;6276325;22;20007;-65
2024/01/26 01:09:40;;;;;;;37.35;21.63;;;;;;;-1.54;67.85;98891.97;6277075;22;20003;-64
2024/01/26 01:12:07;;;;;;;39.15;21.00;;;;;;;-1.54;68.68;98893.75;6276061;22;20056;-64
2024/01/26 01:14:32;;;;;;;39.67;20.90;;;;;;;-1.41;67.57;98891.41;6276137;22;20137;-64
2024/01/26 01:16:58;;;;;;;40.17;20.92;;;;;;;-1.72;68.04;98841.16;6277205;22;20413;-63
2024/01/26 01:19:24;;;;;;;36.22;20.63;;;;;;;-1.62;68.37;98879.19;6276369;22;20004;-63
2024/01/26 01:21:50;;;;;;;40.20;20.73;;;;;;;-1.73;67.37;98842.06;6275918;22;20289;-63
2024/01/26 01:24:15;;;;;;;40.08;22.05;;;;;;;-1.43;67.85;98898.50;6276205;22;20008;-64
2024/01/26 01:26:41;;;;;;;40.35;21.40;;;;;;;-1.50;67.67;98905.78;6276817;22;19999;-63
2024/01/26 01:29:06;;;;;;;36.95;19.80;;;;;;;-1.48;67.82;98890.81;6276097;22;20282;-65
2024/01/26 01:31:32;;;;;;;38.03;20.67;;;;;;;-1.43;67.65;98895.88;6275369;22;20015;-64
2024/01/26 01:33:58;;;;;;;40.40;21.55;;;;;;;-1.44;67.63;98900.28;6276827;22;20003;-62
2024/01/26 01:36:23;;;;;;;39.90;22.25;;;;;;;-1.46;68.11;98891.59;6276705;22;20361;-63
2024/01/26 01:38:49;;;;;;;41.13;21.95;;;;;;;-1.45;68.16;98914.31;6275589;22;20405;-63
2024/01/26 01:41:14;;;;;;;41.17;22.27;;;;;;;-1.50;67.51;98901.41;6276089;22;20012;-63
2024/01/26 01:43:40;;;;;;;40.08;20.00;;;;;;;-1.37;67.00;98913.97;6276736;22;20012;-63
2024/01/26 01:46:06;;;;;;;40.33;20.50;;;;;;;-1.47;67.27;98919.66;6275103;22;20019;-63
2024/01/26 01:48:32;;;;;;;35.60;20.35;;;;;;;-1.50;67.49;98917.16;6276306;22;20011;-63
2024/01/26 01:50:58;;;;;;;40.05;21.50;;;;;;;-1.49;67.44;98918.00;6276326;22;20042;-64
2024/01/26 01:53:24;;;;;;;38.40;20.92;;;;;;;-1.51;67.39;98928.59;6276206;22;20457;-64
2024/01/26 01:55:52;;;;;;;36.33;20.38;;;;;;;-1.42;67.12;98934.34;6275111;22;19999;-62
2024/01/26 01:58:18;;;;;;;42.10;22.02;;;;;;;-1.50;66.54;98930.28;6275562;22;20027;-63
2024/01/26 02:00:43;;;;;;;37.20;20.65;;;;;;;-1.55;67.46;98929.66;6275510;22;20468;-63
2024/01/26 02:03:09;;;;;;;46.35;23.27;;;;;;;-1.62;67.25;98925.56;6276065;22;20027;-63
2024/01/26 02:05:35;;;;;;;40.53;21.85;;;;;;;-1.69;68.39;98935.50;6276486;22;20004;-64
2024/01/26 02:08:00;;;;;;;41.33;22.60;;;;;;;-1.63;67.86;98935.25;6275839;22;20014;-63
2024/01/26 02:10:26;;;;;;;40.00;21.67;;;;;;;-1.62;67.67;98942.19;6275538;22;20070;-63
2024/01/26 02:12:51;;;;;;;37.95;20.83;;;;;;;-1.62;67.79;98952.69;6276049;22;20085;-65
2024/01/26 02:15:17;;;;;;;42.88;22.25;;;;;;;-1.99;67.95;98904.44;6275924;22;19999;-65
2024/01/26 02:18:03;;;;;;;41.30;21.85;;;;;;;-1.61;68.08;98958.78;6275456;22;20024;-63
2024/01/26 02:20:29;;;;;;;43.38;22.27;;;;;;;-1.51;67.13;98959.22;6275734;22;20010;-65
2024/01/26 02:22:54;;;;;;;40.15;21.30;;;;;;;-1.52;66.65;98957.53;6275984;22;20008;-64
2024/01/26 02:25:20;;;;;;;41.10;22.10;;;;;;;-1.63;67.50;98960.63;6276065;22;20343;-63
2024/01/26 02:27:45;;;;;;;39.38;21.98;;;;;;;-1.65;67.40;98959.84;6275233;22;20013;-63
2024/01/26 02:30:12;;;;;;;40.28;20.77;;;;;;;-1.69;67.63;98961.75;6275127;22;20007;-64
2024/01/26 02:32:37;;;;;;;41.70;21.83;;;;;;;-1.68;67.78;98963.47;6275800;22;20015;-63
2024/01/26 02:35:03;;;;;;;42.95;22.70;;;;;;;-1.63;68.15;98971.13;6276279;22;20301;-64
2024/01/26 02:37:29;;;;;;;39.15;21.08;;;;;;;-1.56;68.00;98963.84;6275494;22;20397;-63
2024/01/26 02:39:55;;;;;;;43.00;21.77;;;;;;;-1.52;68.13;98973.28;6275131;22;20105;-63
2024/01/26 02:42:21;;;;;;;40.35;22.23;;;;;;;-1.47;67.99;98968.66;6275456;22;20091;-64
2024/01/26 02:44:46;;;;;;;38.13;21.98;;;;;;;-1.45;68.32;98979.94;6275171;22;20054;-63
2024/01/26 02:47:12;;;;;;;38.60;21.55;;;;;;;-1.41;67.94;98968.41;6274957;22;20060;-64
2024/01/26 02:49:41;;;;;;;40.08;21.23;;;;;;;-1.33;68.14;98974.16;6275731;22;20007;-64
2024/01/26 02:52:06;;;;;;;37.55;22.30;;;;;;;-1.32;67.80;98967.97;6275488;22;20049;-65
2024/01/26 02:54:32;;;;;;;41.80;22.52;;;;;;;-1.24;67.43;98977.28;6275906;22;20008;-63
2024/01/26 02:56:58;;;;;;;39.13;22.27;;;;;;;-1.31;67.12;98967.06;6276108;22;20028;-63
2024/01/26 02:59:24;;;;;;;40.75;22.30;;;;;;;-1.39;67.13;98968.31;6275122;22;20004;-63
2024/01/26 03:01:49;;;;;;;40.97;21.95;;;;;;;-1.31;67.22;98982.81;6275185;22;20011;-62
2024/01/26 03:04:15;;;;;;;43.38;22.80;;;;;;;-1.39;67.65;98982.31;6276182;22;20008;-62
2024/01/26 03:06:41;;;;;;;40.42;22.60;;;;;;;-1.43;66.94;98993.88;6275417;22;20032;-62
2024/01/26 03:09:07;;;;;;;43.45;23.08;;;;;;;-1.46;67.12;98978.25;6274631;22;20003;-65
2024/01/26 03:11:37;;;;;;;40.38;21.80;;;;;;;-1.44;67.04;98986.94;6274773;22;20305;-62
2024/01/26 03:14:04;;;;;;;42.40;23.13;;;;;;;-1.49;67.37;99000.25;6275960;22;20022;-63
2024/01/26 03:16:30;;;;;;;41.58;22.52;;;;;;;-1.51;67.01;98995.97;6248303;22;20000;-62
2024/01/26 03:18:56;;;;;;;41.83;22.95;;;;;;;-1.48;67.28;98999.34;6275700;22;20073;-62
2024/01/26 03:21:21;;;;;;;43.83;23.52;;;;;;;-1.48;67.52;98999.34;6275865;22;20381;-63
2024/01/26 03:23:47;;;;;;;40.47;19.10;;;;;;;-1.32;67.20;99012.63;6275534;22;20000;-63
2024/01/26 03:26:12;;;;;;;42.67;21.80;;;;;;;-1.35;66.88;99012.75;6275069;22;20011;-63
2024/01/26 03:28:38;;;;;;;37.80;21.85;;;;;;;-1.53;66.59;98989.94;6274126;22;20003;-64
2024/01/26 03:31:04;;;;;;;38.58;22.15;;;;;;;-1.72;65.99;98972.38;6274229;22;20000;-64
2024/01/26 03:33:29;;;;;;;41.58;22.50;;;;;;;-1.50;66.39;99019.56;6274933;22;20011;-64
2024/01/26 03:35:55;;;;;;;38.05;20.90;;;;;;;-1.50;66.68;99030.06;6248367;22;20042;-62
2024/01/26 03:38:21;;;;;;;43.00;22.27;;;;;;;-1.56;67.24;99032.09;6275889;22;20000;-63
2024/01/26 03:40:47;;;;;;;39.10;22.60;;;;;;;-1.56;67.16;99025.09;6277532;22;20002;-63
2024/01/26 03:43:12;;;;;;;39.10;21.92;;;;;;;-1.58;67.58;99024.25;6276691;22;20079;-63
2024/01/26 03:45:38;;;;;;;39.75;22.17;;;;;;;-1.52;67.13;99036.28;6277534;22;20014;-64
2024/01/26 03:48:03;;;;;;;43.88;23.05;;;;;;;-1.46;67.40;99038.63;6277516;22;20008;-64
2024/01/26 03:50:29;;;;;;;41.85;22.23;;;;;;;-1.51;66.96;99037.97;6277638;22;20103;-65
2024/01/26 03:52:54;;;;;;;43.92;23.05;;;;;;;-1.71;67.37;98997.69;6276592;22;20015;-63
2024/01/26 03:55:20;;;;;;;39.13;21.80;;;;;;;-1.42;67.12;99047.22;6277215;22;20317;-64
2024/01/26 03:57:45;;;;;;;43.30;22.42;;;;;;;-1.64;66.58;99007.03;6277222;22;20027;-64
2024/01/26 04:00:11;;;;;;;43.47;22.63;;;;;;;-1.42;67.13;99041.97;6277426;22;20393;-65
2024/01/26 04:02:37;;;;;;;40.20;21.63;;;;;;;-1.50;67.28;99047.56;6277854;22;19999;-65
2024/01/26 04:05:02;;;;;;;42.63;22.25;;;;;;;-1.47;66.90;99057.94;6276239;22;20075;-66
2024/01/26 04:07:29;;;;;;;38.20;21.70;;;;;;;-1.52;66.93;99049.41;6277008;22;20004;-66
2024/01/26 04:09:54;;;;;;;45.70;22.80;;;;;;;-1.45;67.58;99059.59;6276402;22;20035;-66
2024/01/26 04:12:20;;;;;;;43.08;21.73;;;;;;;-1.53;67.46;99042.44;6277015;22;19999;-64
2024/01/26 04:14:45;;;;;;;45.08;22.92;;;;;;;-1.59;66.96;99033.06;6276916;22;20007;-66
2024/01/26 04:17:11;;;;;;;44.75;23.60;;;;;;;-1.36;66.25;99066.22;6277111;22;20007;-65
2024/01/26 04:19:36;;;;;;;48.60;24.90;;;;;;;-1.39;66.39;99071.59;6277859;22;20019;-65
2024/01/26 04:22:02;;;;;;;45.40;23.77;;;;;;;-1.79;66.46;99010.31;6276900;22;20004;-69
2024/01/26 04:24:27;;;;;;;45.20;24.35;;;;;;;-1.66;66.34;99035.13;6275743;22;20018;-66
2024/01/26 04:26:53;;;;;;;46.22;23.67;;;;;;;-1.56;66.35;99058.34;6277304;22;20000;-66
2024/01/26 04:29:19;;;;;;;48.33;23.08;;;;;;;-1.74;67.07;99051.19;6276896;22;20389;-66
2024/01/26 04:31:44;;;;;;;48.97;24.15;;;;;;;-1.68;67.59;99073.72;6276325;22;20411;-65
2024/01/26 04:34:10;;;;;;;47.92;25.65;;;;;;;-1.61;66.23;99082.16;6277086;22;20004;-65
2024/01/26 04:36:35;;;;;;;51.70;24.92;;;;;;;-1.67;67.10;99078.03;6276651;22;20077;-65
2024/01/26 04:39:02;;;;;;;48.35;24.10;;;;;;;-2.00;67.72;99026.03;6276099;22;20015;-66
2024/01/26 04:41:29;;;;;;;48.17;25.35;;;;;;;-1.70;67.70;99086.00;6274929;22;20307;-66
2024/01/26 04:43:55;;;;;;;42.03;23.58;;;;;;;-1.62;67.63;99075.19;6276358;22;20297;-67
2024/01/26 04:46:21;;;;;;;52.15;24.98;;;;;;;-1.67;67.47;99077.16;6275075;22;20000;-65
2024/01/26 04:48:46;;;;;;;53.22;24.38;;;;;;;-1.60;66.85;99084.72;6275363;22;20007;-66
2024/01/26 04:51:12;;;;;;;48.53;23.98;;;;;;;-1.67;66.79;99083.28;6276333;22;20003;-64
2024/01/26 04:53:37;;;;;;;50.72;24.77;;;;;;;-1.62;66.97;99091.81;6277119;22;19999;-66
2024/01/26 04:56:03;;;;;;;50.88;24.75;;;;;;;-1.64;67.07;99103.28;6276259;22;20004;-66
2024/01/26 04:58:28;;;;;;;45.40;22.90;;;;;;;-1.63;66.67;99092.72;6276666;22;20000;-65
2024/01/26 05:00:54;;;;;;;42.80;23.42;;;;;;;-1.78;66.43;99064.50;6276497;22;20043;-65
2024/01/26 05:03:19;;;;;;;46.92;24.00;;;;;;;-1.68;66.55;99094.72;6276467;22;20054;-66
2024/01/26 05:05:45;;;;;;;43.92;23.00;;;;;;;-1.65;65.48;99099.81;6276165;22;20487;-67
2024/01/26 05:08:11;;;;;;;46.85;21.95;;;;;;;-1.66;65.83;99095.50;6277001;22;20008;-64
2024/01/26 05:10:36;;;;;;;41.78;23.52;;;;;;;-1.80;66.54;99103.06;6277041;22;20011;-64
2024/01/26 05:13:02;;;;;;;45.45;23.05;;;;;;;-1.89;66.79;99081.56;6276392;22;19999;-66
2024/01/26 05:15:27;;;;;;;44.35;22.52;;;;;;;-1.64;65.61;99105.91;6276156;22;20049;-65
2024/01/26 05:17:53;;;;;;;39.25;21.23;;;;;;;-1.89;65.71;99088.56;6276175;22;20004;-66
2024/01/26 05:20:18;;;;;;;41.95;21.52;;;;;;;-1.79;65.44;99102.16;6275667;22;20003;-66
2024/01/26 05:22:44;;;;;;;45.95;23.10;;;;;;;-1.92;66.26;99100.06;6276290;22;20004;-65
2024/01/26 05:25:09;;;;;;;48.55;22.33;;;;;;;-1.99;66.54;99114.31;6277075;22;20015;-66
2024/01/26 05:27:35;;;;;;;48.38;24.35;;;;;;;-1.97;66.50;99120.34;6276730;22;20008;-66
2024/01/26 05:30:00;;;;;;;43.45;23.38;;;;;;;-2.01;66.46;99134.50;6275613;22;20004;-65
2024/01/26 05:32:26;;;;;;;44.08;23.45;;;;;;;-2.05;67.00;99128.56;6276244;22;20380;-66
2024/01/26 05:34:52;;;;;;;38.92;20.42;;;;;;;-1.97;66.45;99135.25;6276691;22;20004;-66
2024/01/26 05:37:17;;;;;;;40.97;22.60;;;;;;;-1.98;65.95;99123.91;6275061;22;20032;-65
2024/01/26 05:39:43;;;;;;;48.80;23.98;;;;;;;-1.99;66.00;99127.44;6276092;22;20451;-65
2024/01/26 05:42:08;;;;;;;46.53;24.25;;;;;;;-2.00;66.22;99132.75;6276628;22;20010;-66
2024/01/26 05:44:34;;;;;;;44.55;24.05;;;;;;;-2.29;66.47;99087.53;6275443;22;20444;-65
2024/01/26 05:46:59;;;;;;;44.95;23.58;;;;;;;-1.94;66.08;99135.97;6276607;22;20031;-65
2024/01/26 05:49:25;;;;;;;43.72;21.95;;;;;;;-1.97;66.01;99136.09;6275635;22;20381;-66
2024/01/26 05:51:52;;;;;;;43.47;23.58;;;;;;;-2.03;65.69;99121.47;6275928;22;20083;-66
2024/01/26 05:54:17;;;;;;;41.83;21.70;;;;;;;-2.00;66.28;99133.59;6275785;22;20352;-64
2024/01/26 05:56:43;;;;;;;44.17;23.70;;;;;;;-1.99;66.67;99147.59;6275577;22;20008;-64
2024/01/26 05:59:08;;;;;;;43.42;24.60;;;;;;;-1.93;66.46;99152.59;6276051;22;20004;-65
2024/01/26 06:01:35;;;;;;;44.92;22.88;;;;;;;-1.81;66.00;99153.84;6274804;22;20057;-64
2024/01/26 06:04:01;;;;;;;40.85;22.17;;;;;;;-1.81;65.25;99159.09;6275668;22;20066;-63
2024/01/26 06:06:27;;;;;;;45.40;24.10;;;;;;;-1.86;65.63;99161.06;6276252;22;20014;-64
2024/01/26 06:08:52;;;;;;;44.40;23.08;;;;;;;-1.95;65.29;99152.63;6275991;22;20053;-64
2024/01/26 06:11:18;;;;;;;49.60;25.90;;;;;;;-1.89;65.80;99164.66;6275896;22;20079;-64
2024/01/26 06:13:44;;;;;;;50.72;27.02;;;;;;;-1.92;65.71;99160.41;6275878;22;20011;-64
2024/01/26 06:16:14;;;;;;;45.65;24.45;;;;;;;-2.23;65.99;99103.06;6274780;22;20008;-64
2024/01/26 06:18:40;;;;;;;43.65;23.48;;;;;;;-1.82;65.83;99165.28;6276011;22;20026;-65
2024/01/26 06:21:05;;;;;;;49.28;25.00;;;;;;;-1.79;66.14;99170.38;6276338;22;20053;-65
2024/01/26 06:23:31;;;;;;;50.45;25.83;;;;;;;-1.84;65.85;99172.34;6275995;22;20015;-65
2024/01/26 06:25:57;;;;;;;44.80;23.75;;;;;;;-1.78;66.19;99167.72;6275551;22;20012;-64
2024/01/26 06:28:22;;;;;;;48.28;24.55;;;;;;;-1.71;65.57;99167.47;6275744;22;20050;-64
2024/01/26 06:30:48;;;;;;;47.60;25.67;;;;;;;-1.78;65.63;99156.34;6275176;22;20000;-65
2024/01/26 06:33:14;;;;;;;51.15;25.95;;;;;;;-1.55;65.39;99179.06;6274956;22;20027;-69
2024/01/26 06:35:39;;;;;;;49.72;25.02;;;;;;;-1.65;65.48;99164.56;6274116;22;20003;-72
2024/01/26 06:38:05;;;;;;;55.25;26.50;;;;;;;-1.55;65.97;99178.19;6275020;22;20003;-75
2024/01/26 06:40:30;;;;;;;51.45;26.13;;;;;;;-1.43;65.07;99184.69;6276099;22;20014;-73
2024/01/26 06:42:56;;;;;;;52.47;27.20;;;;;;;-1.44;65.25;99183.84;6275367;22;20093;-74
2024/01/26 06:45:22;;;;;;;44.40;23.65;;;;;;;-1.74;64.83;99129.06;6275184;22;20347;-73
2024/01/26 06:47:47;;;;;;;45.65;24.35;;;;;;;-1.43;65.18;99185.56;6275689;22;20012;-71
2024/01/26 06:50:13;;;;;;;49.58;24.17;;;;;;;-1.35;64.99;99187.84;6274066;22;20000;-75
2024/01/26 06:52:38;;;;;;;45.08;23.67;;;;;;;-1.25;64.93;99189.19;6274223;22;20429;-71
2024/01/26 06:55:04;;;;;;;43.22;23.75;;;;;;;-1.42;64.01;99145.25;6273852;22;20389;-71
2024/01/26 06:57:30;;;;;;;45.00;22.83;;;;;;;-1.41;64.03;99146.97;6273628;22;20034;-75
2024/01/26 06:59:55;;;;;;;45.83;23.27;;;;;;;-1.20;64.14;99210.00;6274796;22;20010;-74
2024/01/26 07:02:21;;;;;;;42.20;22.63;;;;;;;-1.42;64.80;99163.63;6272953;22;20449;-74
2024/01/26 07:04:47;;;;;;;41.08;22.67;;;;;;;-1.18;64.71;99197.66;6275482;22;20078;-74
2024/01/26 07:07:12;;;;;;;47.53;25.10;;;;;;;-1.10;64.16;99203.44;6272733;22;20000;-73
2024/01/26 07:09:38;;;;;;;45.78;22.55;;;;;;;-0.98;64.51;99209.06;6274392;22;20010;-74
2024/01/26 07:12:04;;;;;;;42.58;22.10;;;;;;;-0.90;64.18;99207.81;6275866;22;20058;-73
2024/01/26 07:14:29;;;;;;;40.67;22.30;;;;;;;-1.18;64.06;99139.88;6275198;22;20015;-76
2024/01/26 07:16:55;;;;;;;41.85;22.98;;;;;;;-0.75;63.79;99193.16;6275906;22;20082;-76
2024/01/26 07:19:21;;;;;;;43.13;21.77;;;;;;;-0.71;63.21;99196.50;6274260;22;20022;-75
2024/01/26 07:21:46;;;;;;;44.22;22.52;;;;;;;-0.54;63.43;99208.91;6275649;22;20012;-72
2024/01/26 07:24:12;;;;;;;39.63;22.05;;;;;;;-0.42;62.97;99209.28;6275339;22;20065;-72
2024/01/26 07:26:37;;;;;;;40.58;22.30;;;;;;;-0.64;62.12;99184.78;6274421;22;20003;-75
2024/01/26 07:29:03;;;;;;;40.10;21.52;;;;;;;-0.52;61.71;99217.56;6273898;22;20000;-73
2024/01/26 07:31:29;;;;;;;43.05;24.10;;;;;;;-0.58;62.21;99196.81;6275524;22;20003;-76
2024/01/26 07:33:55;;;;;;;41.08;22.73;;;;;;;-0.57;61.83;99219.56;6275219;22;20008;-74
2024/01/26 07:36:20;;;;;;;38.95;22.75;;;;;;;-0.54;63.22;99235.19;6275370;22;20057;-73
2024/01/26 07:38:46;;;;;;;41.33;22.52;;;;;;;-0.47;62.15;99226.13;6275773;22;20018;-78
2024/01/26 07:41:11;;;;;;;39.67;22.92;;;;;;;-0.44;62.59;99225.13;6274994;22;20004;-71
2024/01/26 07:43:37;;;;;;;45.60;23.35;;;;;;;-0.40;62.47;99229.31;6275584;22;20086;-75
2024/01/26 07:46:03;;;;;;;42.30;22.77;;;;;;;-0.37;62.06;99236.22;6274673;22;20011;-73
2024/01/26 07:48:28;;;;;;;45.83;23.90;;;;;;;-0.29;61.60;99239.34;6275546;22;20038;-73
2024/01/26 07:50:54;;;;;;;46.40;24.55;;;;;;;-0.48;61.72;99229.69;6275958;22;20424;-74
2024/01/26 07:53:19;;;;;;;44.25;22.95;;;;;;;-0.34;62.27;99238.72;6275475;22;20039;-72
2024/01/26 07:55:45;;;;;;;44.88;23.48;;;;;;;-0.28;61.79;99246.31;6275214;22;20274;-72
2024/01/26 07:58:10;;;;;;;45.42;24.42;;;;;;;-0.22;61.82;99248.69;6275775;22;20000;-73
2024/01/26 08:00:36;;;;;;;47.10;23.63;;;;;;;-0.21;61.49;99255.66;6276606;22;20062;-74
2024/01/26 08:03:03;;;;;;;45.63;24.17;;;;;;;-0.15;61.24;99249.25;6276421;22;20007;-72
2024/01/26 08:05:28;;;;;;;46.28;25.63;;;;;;;-0.07;61.60;99248.91;6275316;22;20000;-72
2024/01/26 08:07:54;;;;;;;48.83;25.88;;;;;;;-0.04;61.26;99251.38;6274571;22;20069;-74
2024/01/26 08:10:19;;;;;;;46.80;26.35;;;;;;;-0.23;61.02;99220.69;6275024;22;20022;-63
2024/01/26 08:12:45;;;;;;;47.47;25.77;;;;;;;0.01;60.83;99262.59;6271752;22;20043;-63
2024/01/26 08:15:11;;;;;;;46.47;26.42;;;;;;;0.03;60.75;99258.09;6273842;22;20006;-63
2024/01/26 08:17:37;;;;;;;48.03;25.48;;;;;;;0.03;60.31;99260.72;6275832;22;20004;-65
2024/01/26 08:20:04;;;;;;;44.83;24.65;;;;;;;-0.01;60.25;99265.28;6273408;22;20007;-62
2024/01/26 08:22:30;;;;;;;48.08;25.58;;;;;;;-0.09;60.73;99256.03;6275212;22;20011;-65
2024/01/26 08:25:00;;;;;;;42.20;23.73;;;;;;;-0.05;60.74;99266.34;6274697;22;20022;-65
2024/01/26 08:27:29;;;;;;;45.50;23.85;;;;;;;0.01;60.03;99275.75;6276510;22;20011;-65
2024/01/26 08:29:54;;;;;;;43.85;24.08;;;;;;;-0.05;60.39;99276.00;6273397;22;20042;-62
2024/01/26 08:32:20;;;;;;;47.22;24.70;;;;;;;-0.04;60.93;99275.94;6273838;22;19999;-66
2024/01/26 08:34:45;;;;;;;45.80;24.25;;;;;;;0.02;60.33;99277.44;6275134;22;20035;-62
2024/01/26 08:37:11;;;;;;;49.67;25.00;;;;;;;-0.08;59.70;99257.72;6276085;22;20023;-63
2024/01/26 08:39:37;;;;;;;50.80;26.63;;;;;;;-0.08;59.51;99268.25;6275923;22;20412;-66
2024/01/26 08:42:04;;;;;;;49.30;26.02;;;;;;;-0.35;59.70;99235.25;6276378;22;20325;-64
2024/01/26 08:44:30;;;;;;;49.47;26.52;;;;;;;-0.08;59.72;99274.38;6275622;22;20417;-66
2024/01/26 08:46:58;;;;;;;48.78;26.27;;;;;;;-0.04;60.24;99282.97;6275980;22;20016;-64
2024/01/26 08:49:24;;;;;;;53.80;27.70;;;;;;;0.01;60.13;99282.78;6276359;22;20012;-65
2024/01/26 08:51:51;;;;;;;54.83;28.08;;;;;;;0.08;60.06;99281.56;6276311;22;20083;-65
2024/01/26 08:54:18;;;;;;;50.63;27.55;;;;;;;0.05;60.14;99282.56;6275970;22;20004;-66
2024/01/26 08:56:44;;;;;;;51.85;28.05;;;;;;;0.11;59.66;99276.16;6275721;22;20026;-65
2024/01/26 08:59:10;;;;;;;49.45;26.75;;;;;;;0.19;59.93;99283.69;6276390;22;20000;-65
2024/01/26 09:01:36;;;;;;;51.45;27.90;;;;;;;0.16;59.35;99260.16;6275225;22;20003;-63
2024/01/26 09:04:05;;;;;;;47.63;26.35;;;;;;;0.25;59.14;99279.00;6276150;22;20799;-63
2024/01/26 09:06:34;;;;;;;48.47;25.58;;;;;;;0.28;59.45;99280.66;6276517;22;20004;-64
2024/01/26 09:09:01;;;;;;;53.38;27.25;;;;;;;0.25;59.98;99275.53;6274324;22;20069;-64
2024/01/26 09:11:26;;;;;;;47.55;26.38;;;;;;;0.22;59.00;99281.78;6275512;22;20003;-64
2024/01/26 09:13:52;;;;;;;51.53;28.05;;;;;;;0.33;59.72;99283.91;6276030;22;20000;-67
2024/01/26 09:16:17;;;;;;;49.90;27.92;;;;;;;0.42;58.93;99283.47;6275534;22;20424;-64
2024/01/26 09:18:43;;;;;;;58.20;29.83;;;;;;;0.35;58.88;99274.16;6274241;22;20011;-63
2024/01/26 09:21:12;;;;;;;55.13;28.88;;;;;;;0.31;59.15;99285.75;6275291;22;20004;-64
2024/01/26 09:23:38;;;;;;;56.78;29.50;;;;;;;0.36;59.45;99291.66;6276288;22;20000;-64
2024/01/26 09:26:04;;;;;;;58.35;28.98;;;;;;;0.38;59.79;99291.59;6275766;22;20457;-64
2024/01/26 09:28:30;;;;;;;54.97;30.48;;;;;;;0.30;59.25;99257.72;6276028;22;20012;-65
2024/01/26 09:30:56;;;;;;;54.17;29.55;;;;;;;0.49;59.20;99291.09;6274972;22;20245;-65
2024/01/26 09:33:22;;;;;;;58.05;30.40;;;;;;;0.57;58.99;99286.31;6275452;22;20135;-64
2024/01/26 09:35:48;;;;;;;54.10;30.70;;;;;;;0.62;59.02;99291.38;6276371;22;20030;-66
2024/01/26 09:38:13;;;;;;;58.97;31.90;;;;;;;0.61;59.98;99298.41;6275418;22;20008;-69
2024/01/26 09:40:39;;;;;;;59.47;30.98;;;;;;;0.62;59.03;99288.72;6275661;22;19996;-65
2024/01/26 09:43:08;;;;;;;53.55;30.48;;;;;;;0.73;58.63;99296.97;6275262;22;20416;-66
2024/01/26 09:45:33;;;;;;;59.78;31.58;;;;;;;0.51;59.22;99250.56;6273936;22;20007;-66
2024/01/26 09:48:00;;;;;;;61.03;30.98;;;;;;;0.76;59.54;99285.44;6275449;22;20004;-65
2024/01/26 09:50:26;;;;;;;60.00;32.13;;;;;;;0.88;59.09;99303.25;6275162;22;20527;-64
2024/01/26 09:52:52;;;;;;;61.28;33.03;;;;;;;0.88;58.75;99291.88;6275718;22;20008;-64
2024/01/26 09:55:19;;;;;;;59.53;32.97;;;;;;;0.73;58.90;99265.34;6275418;22;20000;-65
2024/01/26 09:57:45;;;;;;;59.10;33.35;;;;;;;0.88;59.39;99289.25;6275638;22;19999;-65
2024/01/26 10:00:12;;;;;;;58.35;33.80;;;;;;;0.61;59.12;99250.13;6275201;22;20012;-64
2024/01/26 10:02:37;;;;;;;62.40;33.55;;;;;;;0.90;59.29;99288.22;6275589;22;20457;-65
2024/01/26 10:05:03;;;;;;;63.42;33.25;;;;;;;0.83;59.56;99287.66;6274532;22;20013;-69
2024/01/26 10:07:29;;;;;;;72.63;37.92;;;;;;;0.84;58.89;99294.66;6275447;22;20064;-67
2024/01/26 10:09:55;;;;;;;80.30;41.10;;;;;;;0.67;60.06;99292.00;6275332;22;20079;-66
2024/01/26 10:12:21;;;;;;;74.93;41.97;;;;;;;0.59;60.28;99296.75;6275594;22;20304;-63
2024/01/26 10:14:46;;;;;;;81.20;44.13;;;;;;;0.59;60.49;99309.94;6274640;22;20007;-64
2024/01/26 10:17:19;;;;;;;82.03;44.38;;;;;;;0.60;60.00;99301.09;6275560;22;20003;-66
2024/01/26 10:19:45;;;;;;;81.63;44.70;;;;;;;0.50;60.24;99285.75;6275132;22;20008;-63
2024/01/26 10:22:10;;;;;;;90.03;46.50;;;;;;;0.38;60.53;99279.28;6275756;22;20442;-64
2024/01/26 10:24:36;;;;;;;83.93;45.28;;;;;;;0.49;60.51;99291.94;6274818;22;19995;-65
2024/01/26 10:27:02;;;;;;;96.70;47.90;;;;;;;0.50;60.50;99293.63;6275097;22;20363;-63
2024/01/26 10:29:27;;;;;;;88.53;46.40;;;;;;;0.51;60.65;99299.78;6273469;22;20297;-63
2024/01/26 10:31:53;;;;;;;79.85;43.75;;;;;;;0.49;60.20;99305.09;6275310;22;20109;-66
2024/01/26 10:34:19;;;;;;;87.70;46.22;;;;;;;0.43;60.53;99300.97;6275209;22;20045;-64
2024/01/26 10:36:47;;;;;;;90.18;47.80;;;;;;;0.53;60.51;99305.81;6275075;22;19999;-63
2024/01/26 10:39:23;;;;;;;85.53;47.17;;;;;;;0.56;60.88;99279.34;6275704;22;20241;-66
2024/01/26 10:41:52;;;;;;;87.50;46.55;;;;;;;0.65;60.01;99299.13;6273717;22;20320;-67
2024/01/26 10:44:19;;;;;;;88.78;46.72;;;;;;;0.49;59.82;99301.63;6275426;22;20004;-65
2024/01/26 10:46:45;;;;;;;90.63;46.92;;;;;;;0.60;59.62;99301.97;6274243;22;20019;-71
2024/01/26 10:49:12;;;;;;;97.60;48.70;;;;;;;0.29;60.05;99298.16;6273102;22;20573;-70
2024/01/26 10:51:42;;;;;;;98.90;48.88;;;;;;;0.26;60.57;99308.84;6272926;22;20082;-68
2024/01/26 10:54:11;;;;;;;92.68;48.58;;;;;;;0.27;60.77;99294.75;6273485;22;20044;-68
2024/01/26 10:56:40;;;;;;;95.90;50.80;;;;;;;0.36;61.14;99302.19;6273366;22;20068;-70
2024/01/26 10:59:09;;;;;;;99.30;49.97;;;;;;;0.53;60.98;99305.81;6273101;22;20420;-66
2024/01/26 11:01:35;;;;;;;94.53;47.90;;;;;;;0.29;59.99;99261.28;6273333;22;20114;-68
2024/01/26 11:04:01;;;;;;;90.32;45.05;;;;;;;0.57;59.61;99315.28;6249156;22;20074;-67
2024/01/26 11:06:28;;;;;;;89.75;46.97;;;;;;;0.36;59.56;99261.81;6275315;22;20031;-69
2024/01/26 11:09:05;;;;;;;91.38;47.85;;;;;;;0.61;59.63;99322.09;6275492;22;20457;-68
2024/01/26 11:11:32;;;;;;;91.43;46.58;;;;;;;0.55;60.51;99314.50;6276129;22;20087;-69
2024/01/26 11:14:02;;;;;;;101.13;48.40;;;;;;;0.48;60.08;99313.94;6275904;22;20046;-69